Terminal Aerodrome Forecast
Issued by NWS Wilmington, NC

Home | Current Version | Previous Version | Text Only | Print | Product List | Glossary On
Versions: 1 2 3 4 5 6 7 8 9 10 11 12 13 14 15 16 17
000
FTUS42 KILM 200528
TAFFLO
TAF
KFLO 200528Z 2006/2106 13004KT P6SM OVC050
      TEMPO 2010/2013 5SM -SHRA SCT006 BKN025
     FM201300 17006KT P6SM SCT006 OVC025
     FM201600 23009KT P6SM BKN025=

USA.gov is the U.S. government's official web portal to all federal, state and local government web resources and services.